createdAt,value
2018-10-05T00:01:37.308Z,64.90
2018-10-05T00:04:06.369Z,64.90
2018-10-05T00:06:37.809Z,64.90
2018-10-05T00:09:08.829Z,64.90
2018-10-05T00:11:39.003Z,64.90
2018-10-05T00:14:07.744Z,64.90
2018-10-05T00:16:36.274Z,64.90
2018-10-05T00:19:06.787Z,65.00
2018-10-05T00:21:36.057Z,65.00
2018-10-05T00:24:05.649Z,65.00
2018-10-05T00:26:34.474Z,65.20
2018-10-05T00:29:03.152Z,65.90
2018-10-05T00:31:31.876Z,65.10
2018-10-05T00:34:00.564Z,65.10
2018-10-05T00:36:29.233Z,65.10
2018-10-05T00:39:04.704Z,65.10
2018-10-05T00:41:33.981Z,65.00
2018-10-05T00:44:02.564Z,65.10
2018-10-05T00:46:30.251Z,65.20
2018-10-05T00:48:57.923Z,65.30
2018-10-05T00:51:25.612Z,65.30
2018-10-05T00:53:53.347Z,65.40
2018-10-05T00:56:21.005Z,65.40
2018-10-05T00:58:48.671Z,65.20
2018-10-05T01:01:16.387Z,65.20
2018-10-05T01:03:44.068Z,65.20
2018-10-05T01:06:11.747Z,65.20
2018-10-05T01:08:39.413Z,65.20
2018-10-05T01:11:08.141Z,65.20
2018-10-05T01:13:36.888Z,65.20
2018-10-05T01:16:06.740Z,65.20
2018-10-05T01:18:36.737Z,65.20
2018-10-05T01:21:05.754Z,65.40
2018-10-05T01:23:34.147Z,65.40
2018-10-05T01:26:01.817Z,65.20
2018-10-05T01:28:30.524Z,65.10
2018-10-05T01:30:58.209Z,65.20
2018-10-05T01:33:25.864Z,64.90
2018-10-05T01:35:54.433Z,65.10
2018-10-05T01:38:23.100Z,65.10
2018-10-05T01:40:51.789Z,65.20
2018-10-05T01:43:20.476Z,65.20
2018-10-05T01:45:48.152Z,65.30
2018-10-05T01:48:15.831Z,65.50
2018-10-05T01:50:44.515Z,65.40
2018-10-05T01:53:13.195Z,65.20
2018-10-05T01:55:40.866Z,65.10
2018-10-05T01:58:08.533Z,65.10
2018-10-05T02:00:37.924Z,65.20
2018-10-05T02:03:06.401Z,65.10
2018-10-05T02:05:34.728Z,65.20
2018-10-05T02:08:02.570Z,65.20
2018-10-05T02:10:30.271Z,65.20
2018-10-05T02:12:58.813Z,65.60
2018-10-05T02:15:27.405Z,65.30
2018-10-05T02:17:55.086Z,65.20
2018-10-05T02:20:22.752Z,65.10
2018-10-05T02:22:50.413Z,65.10
2018-10-05T02:25:19.131Z,65.10
2018-10-05T02:27:47.848Z,64.60
2018-10-05T02:30:16.574Z,65.20
2018-10-05T02:32:44.242Z,65.80
2018-10-05T02:35:11.963Z,65.40
2018-10-05T02:37:40.555Z,65.60
2018-10-05T02:40:08.224Z,65.40
2018-10-05T02:42:36.893Z,65.30
2018-10-05T02:45:05.344Z,65.20
2018-10-05T02:47:34.092Z,65.10
2018-10-05T02:50:02.796Z,65.10
2018-10-05T02:52:30.465Z,65.40
2018-10-05T02:54:58.132Z,65.10
2018-10-05T02:57:25.799Z,65.10
2018-10-05T02:59:53.467Z,65.20
2018-10-05T03:02:27.592Z,65.20
2018-10-05T03:04:56.239Z,65.40
2018-10-05T03:07:25.256Z,65.20
2018-10-05T03:09:53.957Z,65.20
2018-10-05T03:12:22.709Z,65.10
2018-10-05T03:14:51.247Z,65.00
2018-10-05T03:17:19.848Z,65.10
2018-10-05T03:19:47.557Z,65.10
2018-10-05T03:22:16.123Z,65.10
2018-10-05T03:24:44.728Z,65.10
2018-10-05T03:27:13.432Z,65.60
2018-10-05T03:29:42.404Z,65.40
2018-10-05T03:32:11.323Z,65.20
2018-10-05T03:34:39.856Z,65.10
2018-10-05T03:37:08.951Z,64.90
2018-10-05T03:39:37.718Z,64.90
2018-10-05T03:42:07.876Z,64.80
2018-10-05T03:44:37.379Z,64.70
2018-10-05T03:47:07.709Z,64.70
2018-10-05T03:49:37.587Z,64.70
2018-10-05T03:52:07.097Z,64.70
2018-10-05T03:54:36.615Z,64.80
2018-10-05T03:57:07.169Z,64.90
2018-10-05T03:59:36.051Z,65.00
2018-10-05T04:02:06.120Z,65.00
2018-10-05T04:04:34.427Z,64.90
2018-10-05T04:07:03.678Z,64.90
2018-10-05T04:09:32.360Z,64.90
2018-10-05T04:12:01.096Z,64.90
2018-10-05T04:14:28.776Z,64.90
2018-10-05T04:16:57.540Z,64.90
2018-10-05T04:19:25.240Z,64.90
2018-10-05T04:21:53.848Z,65.00
2018-10-05T04:24:21.534Z,65.20
2018-10-05T04:26:50.248Z,65.10
2018-10-05T04:29:17.972Z,65.00
2018-10-05T04:31:46.562Z,64.90
2018-10-05T04:34:14.232Z,64.90
2018-10-05T04:36:42.776Z,64.90
2018-10-05T04:39:10.596Z,64.90
2018-10-05T04:41:39.220Z,64.90
2018-10-05T04:44:08.432Z,64.90
2018-10-05T04:46:38.056Z,64.90
2018-10-05T04:49:07.531Z,65.00
2018-10-05T04:51:37.936Z,65.40
2018-10-05T04:54:05.656Z,65.20
2018-10-05T04:56:36.586Z,65.10
2018-10-05T04:59:05.308Z,65.10
2018-10-05T05:01:34.803Z,64.90
2018-10-05T05:04:04.620Z,64.90
2018-10-05T05:06:33.720Z,64.80
2018-10-05T05:09:02.420Z,64.80
2018-10-05T05:11:30.139Z,65.40
2018-10-05T05:13:57.800Z,64.90
2018-10-05T05:16:26.528Z,65.00
2018-10-05T05:18:55.236Z,65.20
2018-10-05T05:21:23.951Z,65.10
2018-10-05T05:23:52.708Z,65.60
2018-10-05T05:26:20.501Z,64.90
2018-10-05T05:28:48.163Z,64.70
2018-10-05T05:31:16.908Z,64.80
2018-10-05T05:33:45.687Z,64.80
2018-10-05T05:36:14.315Z,64.80
2018-10-05T05:38:42.982Z,64.80
2018-10-05T05:41:11.525Z,65.00
2018-10-05T05:43:39.218Z,65.20
2018-10-05T05:46:07.544Z,65.20
2018-10-05T05:48:37.728Z,64.90
2018-10-05T05:51:07.211Z,64.90
2018-10-05T05:53:37.471Z,64.90
2018-10-05T05:56:07.241Z,64.90
2018-10-05T05:58:36.471Z,65.10
2018-10-05T06:01:07.186Z,64.90
2018-10-05T06:03:38.940Z,65.00
2018-10-05T06:06:07.591Z,65.30
2018-10-05T06:08:38.119Z,65.50
2018-10-05T06:11:07.075Z,65.20
2018-10-05T06:13:35.788Z,65.00
2018-10-05T06:16:04.613Z,65.00
2018-10-05T06:18:32.312Z,65.00
2018-10-05T06:21:01.800Z,65.00
2018-10-05T06:23:29.583Z,64.90
2018-10-05T06:25:57.260Z,65.00
2018-10-05T06:28:24.929Z,64.90
2018-10-05T06:30:52.670Z,65.10
2018-10-05T06:33:20.325Z,65.40
2018-10-05T06:35:48.026Z,65.10
2018-10-05T06:38:16.726Z,65.20
2018-10-05T06:40:44.366Z,64.90
2018-10-05T06:43:12.044Z,64.90
2018-10-05T06:45:39.715Z,64.90
2018-10-05T06:48:08.277Z,64.90
2018-10-05T06:50:37.111Z,64.90
2018-10-05T06:53:06.934Z,64.90
2018-10-05T06:55:36.690Z,64.90
2018-10-05T06:58:07.000Z,65.30
2018-10-05T07:00:36.896Z,65.20
2018-10-05T07:03:05.055Z,65.00
2018-10-05T07:05:32.719Z,65.00
2018-10-05T07:08:01.530Z,64.90
2018-10-05T07:10:30.572Z,64.80
2018-10-05T07:12:59.256Z,64.80
2018-10-05T07:15:26.921Z,64.90
2018-10-05T07:17:55.625Z,64.90
2018-10-05T07:20:24.333Z,64.90
2018-10-05T07:22:52.027Z,65.10
2018-10-05T07:25:20.756Z,65.20
2018-10-05T07:27:49.512Z,65.20
2018-10-05T07:30:17.176Z,64.90
2018-10-05T07:32:45.727Z,64.80
2018-10-05T07:35:13.408Z,64.60
2018-10-05T07:37:42.127Z,64.40
2018-10-05T07:40:10.471Z,64.30
2018-10-05T07:42:39.143Z,64.20
2018-10-05T07:45:07.899Z,64.20
2018-10-05T07:47:37.069Z,64.10
2018-10-05T07:50:07.291Z,64.20
2018-10-05T07:52:37.226Z,64.30
2018-10-05T07:55:06.390Z,64.20
2018-10-05T07:57:34.840Z,64.50
2018-10-05T08:00:02.524Z,64.30
2018-10-05T08:02:31.228Z,64.50
2018-10-05T08:04:58.943Z,64.40
2018-10-05T08:07:26.615Z,64.20
2018-10-05T08:09:54.316Z,64.30
2018-10-05T08:12:22.899Z,64.70
2018-10-05T08:14:51.544Z,64.50
2018-10-05T08:17:20.105Z,64.90
2018-10-05T08:19:48.916Z,64.60
2018-10-05T08:22:17.475Z,64.80
2018-10-05T08:24:46.225Z,64.50
2018-10-05T08:27:13.963Z,64.60
2018-10-05T08:29:42.619Z,64.50
2018-10-05T08:32:10.283Z,64.50
2018-10-05T08:34:38.003Z,64.90
2018-10-05T08:37:05.654Z,64.70
2018-10-05T08:39:35.014Z,64.70
2018-10-05T08:42:02.697Z,64.90
2018-10-05T08:44:31.359Z,65.20
2018-10-05T08:46:59.132Z,65.00
2018-10-05T08:49:26.803Z,65.00
2018-10-05T08:51:54.512Z,64.90
2018-10-05T08:54:22.173Z,64.80
2018-10-05T08:56:49.847Z,64.90
2018-10-05T08:59:17.535Z,65.00
2018-10-05T09:01:45.210Z,65.20
2018-10-05T09:04:12.877Z,65.20
2018-10-05T09:06:40.688Z,65.20
2018-10-05T09:09:08.888Z,65.20
2018-10-05T09:11:38.622Z,65.10
2018-10-05T09:14:07.493Z,65.00
2018-10-05T09:16:37.284Z,65.20
2018-10-05T09:19:06.114Z,65.30
2018-10-05T09:21:35.152Z,65.20
2018-10-05T09:24:02.864Z,65.30
2018-10-05T09:26:31.460Z,65.30
2018-10-05T09:29:00.045Z,65.30
2018-10-05T09:31:28.636Z,64.90
2018-10-05T09:33:56.337Z,65.10
2018-10-05T09:36:25.067Z,64.90
2018-10-05T09:38:52.784Z,64.70
2018-10-05T09:41:21.472Z,64.90
2018-10-05T09:43:50.156Z,64.60
2018-10-05T09:46:18.720Z,64.90
2018-10-05T09:48:47.310Z,64.70
2018-10-05T09:51:15.655Z,64.70
2018-10-05T09:53:44.408Z,64.00
2018-10-05T09:56:12.128Z,64.30
2018-10-05T09:58:40.694Z,64.70
2018-10-05T10:01:13.884Z,65.10
2018-10-05T10:03:42.459Z,64.50
2018-10-05T10:06:10.192Z,64.70
2018-10-05T10:08:38.867Z,64.00
2018-10-05T10:11:07.069Z,64.10
2018-10-05T10:13:37.499Z,63.70
2018-10-05T10:16:06.912Z,63.60
2018-10-05T10:18:37.356Z,63.50
2018-10-05T10:21:06.644Z,63.40
2018-10-05T10:23:36.816Z,63.70
2018-10-05T10:26:07.346Z,63.20
2018-10-05T10:28:36.138Z,63.30
2018-10-05T10:31:05.207Z,63.40
2018-10-05T10:33:34.864Z,63.50
2018-10-05T10:36:04.220Z,63.50
2018-10-05T10:38:31.925Z,63.40
2018-10-05T10:41:00.555Z,63.90
2018-10-05T10:43:29.268Z,64.50
2018-10-05T10:45:56.931Z,64.00
2018-10-05T10:48:24.612Z,64.70
2018-10-05T10:50:52.307Z,63.90
2018-10-05T10:53:20.020Z,64.10
2018-10-05T10:55:47.684Z,64.30
2018-10-05T10:58:15.357Z,64.50
2018-10-05T11:00:43.179Z,64.70
2018-10-05T11:03:10.846Z,64.90
2018-10-05T11:05:38.929Z,65.00
2018-10-05T11:08:07.006Z,64.60
2018-10-05T11:10:35.268Z,64.50
2018-10-05T11:13:03.212Z,64.50
2018-10-05T11:15:31.932Z,64.80
2018-10-05T11:17:59.623Z,64.90
2018-10-05T11:20:27.298Z,65.80
2018-10-05T11:22:54.993Z,65.00
2018-10-05T11:25:22.655Z,65.10
2018-10-05T11:27:56.998Z,64.90
2018-10-05T11:30:31.707Z,65.20
2018-10-05T11:32:59.384Z,65.20
2018-10-05T11:35:27.049Z,65.50
2018-10-05T11:37:54.829Z,65.50
2018-10-05T11:40:22.505Z,65.20
2018-10-05T11:42:50.243Z,65.30
2018-10-05T11:45:17.927Z,65.40
2018-10-05T11:47:45.611Z,66.50
2018-10-05T11:50:13.308Z,65.50
2018-10-05T11:52:40.988Z,65.50
2018-10-05T11:55:08.714Z,65.10
2018-10-05T11:57:37.237Z,65.00
2018-10-05T12:00:06.020Z,65.20
2018-10-05T12:02:36.673Z,65.10
2018-10-05T12:05:06.309Z,65.10
2018-10-05T12:07:35.011Z,65.00
2018-10-05T12:10:02.676Z,64.90
2018-10-05T12:12:31.379Z,65.10
2018-10-05T12:14:59.995Z,64.70
2018-10-05T12:17:27.655Z,64.80
2018-10-05T12:19:55.440Z,64.90
2018-10-05T12:22:23.053Z,65.00
2018-10-05T12:24:50.725Z,64.60
2018-10-05T12:27:18.436Z,65.00
2018-10-05T12:29:46.107Z,64.90
2018-10-05T12:32:13.772Z,64.70
2018-10-05T12:34:41.459Z,65.00
2018-10-05T12:37:09.192Z,64.90
2018-10-05T12:39:37.871Z,65.00
2018-10-05T12:42:08.663Z,64.30
2018-10-05T12:44:38.584Z,65.30
2018-10-05T12:47:08.316Z,65.00
2018-10-05T12:49:37.680Z,65.00
2018-10-05T12:52:06.625Z,64.90
2018-10-05T12:54:36.693Z,65.10
2018-10-05T12:57:06.999Z,64.70
2018-10-05T12:59:36.690Z,64.80
2018-10-05T13:02:07.219Z,65.00
2018-10-05T13:04:37.055Z,65.20
2018-10-05T13:07:08.012Z,65.50
2018-10-05T13:09:36.584Z,64.80
2018-10-05T13:12:06.831Z,64.60
2018-10-05T13:14:34.502Z,64.40
2018-10-05T13:17:03.192Z,65.20
2018-10-05T13:19:31.104Z,65.20
2018-10-05T13:21:59.650Z,66.00
2018-10-05T13:24:28.341Z,65.40
2018-10-05T13:26:56.908Z,65.20
2018-10-05T13:29:25.472Z,66.20
2018-10-05T13:31:53.183Z,65.40
2018-10-05T13:34:21.875Z,65.00
2018-10-05T13:36:51.357Z,65.40
2018-10-05T13:39:19.051Z,65.60
2018-10-05T13:41:47.888Z,65.40
2018-10-05T13:44:16.444Z,65.20
2018-10-05T13:46:44.124Z,65.60
2018-10-05T13:49:12.800Z,65.30
2018-10-05T13:51:40.531Z,65.60
2018-10-05T13:54:09.095Z,65.40
2018-10-05T13:56:37.824Z,65.60
2018-10-05T13:59:07.140Z,65.50
2018-10-05T14:01:36.832Z,65.40
2018-10-05T14:04:07.265Z,65.30
2018-10-05T14:06:36.752Z,65.50
2018-10-05T14:09:08.471Z,65.40
2018-10-05T14:11:38.027Z,64.90
2018-10-05T14:14:07.701Z,65.60
2018-10-05T14:16:37.216Z,65.40
2018-10-05T14:19:07.135Z,64.90
2018-10-05T14:21:36.853Z,65.50
2018-10-05T14:24:08.259Z,65.30
2018-10-05T14:26:37.968Z,65.70
2018-10-05T14:29:07.764Z,65.60
2018-10-05T14:31:37.501Z,65.80
2018-10-05T14:34:07.135Z,65.70
2018-10-05T14:36:37.276Z,65.60
2018-10-05T14:39:07.825Z,65.40
2018-10-05T14:41:36.653Z,65.40
2018-10-05T14:44:07.560Z,65.40
2018-10-05T14:46:36.597Z,65.40
2018-10-05T14:49:06.868Z,65.30
2018-10-05T14:51:38.068Z,65.50
2018-10-05T14:54:07.835Z,65.00
2018-10-05T14:56:37.036Z,65.10
2018-10-05T14:59:07.308Z,65.50
2018-10-05T15:01:37.020Z,65.00
2018-10-05T15:04:08.091Z,65.30
2018-10-05T15:06:38.163Z,65.20
2018-10-05T15:09:06.511Z,65.10
2018-10-05T15:11:34.976Z,65.20
2018-10-05T15:14:02.765Z,65.30
2018-10-05T15:16:30.435Z,64.80
2018-10-05T15:18:58.108Z,65.10
2018-10-05T15:21:25.817Z,65.10
2018-10-05T15:23:53.484Z,65.40
2018-10-05T15:26:21.148Z,65.50
2018-10-05T15:28:48.831Z,65.40
2018-10-05T15:31:16.495Z,65.60
2018-10-05T15:33:44.204Z,65.60
2018-10-05T15:36:12.760Z,65.60
2018-10-05T15:38:40.433Z,65.40
2018-10-05T15:41:08.228Z,65.70
2018-10-05T15:43:37.956Z,65.80
2018-10-05T15:46:08.251Z,65.80
2018-10-05T15:48:37.366Z,66.10
2018-10-05T15:51:07.452Z,66.90
2018-10-05T15:53:37.340Z,66.30
2018-10-05T15:56:07.344Z,66.30
2018-10-05T15:58:36.988Z,66.20
2018-10-05T16:01:07.635Z,66.40
2018-10-05T16:03:37.609Z,66.40
2018-10-05T16:06:07.663Z,66.50
2018-10-05T16:08:37.205Z,66.00
2018-10-05T16:11:06.968Z,66.20
2018-10-05T16:13:35.289Z,66.00
2018-10-05T16:16:02.972Z,66.00
2018-10-05T16:18:31.488Z,66.00
2018-10-05T16:21:00.060Z,65.90
2018-10-05T16:23:27.723Z,66.70
2018-10-05T16:25:55.383Z,65.80
2018-10-05T16:28:24.072Z,65.80
2018-10-05T16:30:52.781Z,65.70
2018-10-05T16:33:20.440Z,65.60
2018-10-05T16:35:48.108Z,65.60
2018-10-05T16:38:15.778Z,65.60
2018-10-05T16:40:43.453Z,65.50
2018-10-05T16:43:11.124Z,65.60
2018-10-05T16:45:39.183Z,65.70
2018-10-05T16:48:07.595Z,65.80
2018-10-05T16:50:37.293Z,65.80
2018-10-05T16:53:07.208Z,66.00
2018-10-05T16:55:37.069Z,65.90
2018-10-05T16:58:07.875Z,65.50
2018-10-05T17:00:36.084Z,65.20
2018-10-05T17:03:05.039Z,65.60
2018-10-05T17:05:34.676Z,65.30
2018-10-05T17:08:02.343Z,65.30
2018-10-05T17:10:30.065Z,65.40
2018-10-05T17:12:57.757Z,65.40
2018-10-05T17:15:25.424Z,65.40
2018-10-05T17:17:53.168Z,65.40
2018-10-05T17:20:21.727Z,65.50
2018-10-05T17:22:49.447Z,65.60
2018-10-05T17:25:17.114Z,65.30
2018-10-05T17:27:44.951Z,65.20
2018-10-05T17:30:12.652Z,65.20
2018-10-05T17:32:40.316Z,65.10
2018-10-05T17:35:08.080Z,65.00
2018-10-05T17:37:38.029Z,65.10
2018-10-05T17:40:07.843Z,65.10
2018-10-05T17:42:37.756Z,65.20
2018-10-05T17:45:07.918Z,65.10
2018-10-05T17:47:38.216Z,65.30
2018-10-05T17:50:07.248Z,65.30
2018-10-05T17:52:37.432Z,65.10
2018-10-05T17:55:07.114Z,65.10
2018-10-05T17:57:37.064Z,65.00
2018-10-05T18:00:07.436Z,65.00
2018-10-05T18:02:36.826Z,65.00
2018-10-05T18:05:08.084Z,65.60
2018-10-05T18:07:37.840Z,65.20
2018-10-05T18:10:07.019Z,65.10
2018-10-05T18:12:38.072Z,64.70
2018-10-05T18:15:07.449Z,64.60
2018-10-05T18:17:36.841Z,64.40
2018-10-05T18:20:07.307Z,64.30
2018-10-05T18:22:37.429Z,64.10
2018-10-05T18:25:07.248Z,64.30
2018-10-05T18:27:37.357Z,64.30
2018-10-05T18:30:07.009Z,64.10
2018-10-05T18:32:35.148Z,64.20
2018-10-05T18:35:04.329Z,64.20
2018-10-05T18:37:32.928Z,64.30
2018-10-05T18:40:01.496Z,64.30
2018-10-05T18:42:30.199Z,64.60
2018-10-05T18:44:58.918Z,64.50
2018-10-05T18:47:27.693Z,64.40
2018-10-05T18:49:56.267Z,64.40
2018-10-05T18:52:25.463Z,64.50
2018-10-05T18:54:53.481Z,64.50
2018-10-05T18:57:23.392Z,65.10
2018-10-05T18:59:51.991Z,64.60
2018-10-05T19:02:21.052Z,64.70
2018-10-05T19:04:49.759Z,64.80
2018-10-05T19:07:17.473Z,64.90
2018-10-05T19:09:45.133Z,65.20
2018-10-05T19:12:12.853Z,65.10
2018-10-05T19:14:40.524Z,64.90
2018-10-05T19:17:08.279Z,65.00
2018-10-05T19:19:36.732Z,64.90
2018-10-05T19:22:05.740Z,64.90
2018-10-05T19:24:33.404Z,64.90
2018-10-05T19:27:01.211Z,64.90
2018-10-05T19:29:28.987Z,64.90
2018-10-05T19:31:56.648Z,65.60
2018-10-05T19:34:24.305Z,64.90
2018-10-05T19:36:52.016Z,64.90
2018-10-05T19:39:19.692Z,65.60
2018-10-05T19:41:47.378Z,65.40
2018-10-05T19:44:15.054Z,65.80
2018-10-05T19:46:42.721Z,64.90
2018-10-05T19:49:10.393Z,64.90
2018-10-05T19:51:38.061Z,64.90
2018-10-05T19:54:07.595Z,64.80
2018-10-05T19:56:37.581Z,64.80
2018-10-05T19:59:07.213Z,65.20
2018-10-05T20:01:36.919Z,64.90
2018-10-05T20:04:05.245Z,64.90
2018-10-05T20:06:32.953Z,65.00
2018-10-05T20:09:00.624Z,65.30
2018-10-05T20:11:28.362Z,65.20
2018-10-05T20:13:56.032Z,64.80
2018-10-05T20:16:23.746Z,64.90
2018-10-05T20:18:52.448Z,64.80
2018-10-05T20:21:21.139Z,64.80
2018-10-05T20:23:49.839Z,65.20
2018-10-05T20:26:17.536Z,64.70
2018-10-05T20:28:46.085Z,64.80
2018-10-05T20:31:13.757Z,64.80
2018-10-05T20:33:41.456Z,64.80
2018-10-05T20:36:09.377Z,65.20
2018-10-05T20:38:37.957Z,65.00
2018-10-05T20:41:08.080Z,64.90
2018-10-05T20:43:38.335Z,64.90
2018-10-05T20:46:07.771Z,64.80
2018-10-05T20:48:36.948Z,64.70
2018-10-05T20:51:06.896Z,64.80
2018-10-05T20:53:36.340Z,64.80
2018-10-05T20:56:05.097Z,64.80
2018-10-05T20:58:32.779Z,64.70
2018-10-05T21:01:01.528Z,64.60
2018-10-05T21:03:30.067Z,65.00
2018-10-05T21:05:58.843Z,64.90
2018-10-05T21:08:26.519Z,64.90
2018-10-05T21:10:55.202Z,64.80
2018-10-05T21:13:22.863Z,64.60
2018-10-05T21:15:51.414Z,64.50
2018-10-05T21:18:19.078Z,64.60
2018-10-05T21:20:46.747Z,64.60
2018-10-05T21:23:14.411Z,64.50
2018-10-05T21:25:42.161Z,65.30
2018-10-05T21:28:09.820Z,64.60
2018-10-05T21:30:38.000Z,64.90
2018-10-05T21:33:07.757Z,65.40
2018-10-05T21:35:38.407Z,64.70
2018-10-05T21:38:07.948Z,65.30
2018-10-05T21:40:38.117Z,64.60
2018-10-05T21:43:08.045Z,64.70
2018-10-05T21:45:37.960Z,64.60
2018-10-05T21:48:07.845Z,64.60
2018-10-05T21:50:37.141Z,64.70
2018-10-05T21:53:05.304Z,64.70
2018-10-05T21:55:34.402Z,65.10
2018-10-05T21:58:03.108Z,64.60
2018-10-05T22:00:36.127Z,64.30
2018-10-05T22:03:05.242Z,64.30
2018-10-05T22:05:34.390Z,64.30
2018-10-05T22:08:02.055Z,64.20
2018-10-05T22:10:30.635Z,63.90
2018-10-05T22:12:59.292Z,63.70
2018-10-05T22:15:27.981Z,63.70
2018-10-05T22:17:56.708Z,63.80
2018-10-05T22:20:25.385Z,63.90
2018-10-05T22:22:54.108Z,63.90
2018-10-05T22:25:21.872Z,64.10
2018-10-05T22:27:50.624Z,64.10
2018-10-05T22:30:19.281Z,64.10
2018-10-05T22:32:48.016Z,64.10
2018-10-05T22:35:16.696Z,64.30
2018-10-05T22:37:45.368Z,64.50
2018-10-05T22:40:14.108Z,64.50
2018-10-05T22:42:41.780Z,64.30
2018-10-05T22:45:10.343Z,64.30
2018-10-05T22:47:39.027Z,64.20
2018-10-05T22:50:09.123Z,64.10
2018-10-05T22:52:39.214Z,64.10
2018-10-05T22:55:07.875Z,64.30
2018-10-05T22:57:37.076Z,64.40
2018-10-05T23:00:06.636Z,64.30
2018-10-05T23:02:36.984Z,64.20
2018-10-05T23:05:06.964Z,64.40
2018-10-05T23:07:37.467Z,64.60
2018-10-05T23:10:07.516Z,64.40
2018-10-05T23:12:36.683Z,64.30
2018-10-05T23:15:08.118Z,64.40
2018-10-05T23:17:37.232Z,64.40
2018-10-05T23:20:08.190Z,64.30
2018-10-05T23:22:37.992Z,64.10
2018-10-05T23:25:07.891Z,64.10
2018-10-05T23:27:37.417Z,64.00
2018-10-05T23:30:06.688Z,64.10
2018-10-05T23:32:37.096Z,64.00
2018-10-05T23:35:04.940Z,64.30
2018-10-05T23:37:33.612Z,64.20
2018-10-05T23:40:02.153Z,63.80
2018-10-05T23:42:30.854Z,63.80
2018-10-05T23:44:59.576Z,64.10
2018-10-05T23:47:28.244Z,64.00
2018-10-05T23:49:55.952Z,63.80
2018-10-05T23:52:54.512Z,63.90
2018-10-05T23:55:23.047Z,64.10
2018-10-05T23:57:51.708Z,63.80
